sensor_id;sensor_type;location;lat;lon;timestamp;temperature;humidity
61386;DHT22;47256;18.904;-99.054;2023-11-19T00:00:09;25.40;99.90
61386;DHT22;47256;18.904;-99.054;2023-11-19T00:02:40;25.40;99.90
61386;DHT22;47256;18.904;-99.054;2023-11-19T00:05:10;25.30;99.90
61386;DHT22;47256;18.904;-99.054;2023-11-19T00:07:40;25.20;99.90
61386;DHT22;47256;18.904;-99.054;2023-11-19T00:10:13;25.10;99.90
61386;DHT22;47256;18.904;-99.054;2023-11-19T00:12:43;25.10;99.90
61386;DHT22;47256;18.904;-99.054;2023-11-19T00:15:11;25.00;99.90
61386;DHT22;47256;18.904;-99.054;2023-11-19T00:17:40;24.90;99.90
61386;DHT22;47256;18.904;-99.054;2023-11-19T00:20:19;24.80;99.90
61386;DHT22;47256;18.904;-99.054;2023-11-19T00:22:49;24.80;99.90
61386;DHT22;47256;18.904;-99.054;2023-11-19T00:25:19;24.70;99.90
61386;DHT22;47256;18.904;-99.054;2023-11-19T00:27:48;24.60;99.90
61386;DHT22;47256;18.904;-99.054;2023-11-19T00:30:17;24.60;99.90
61386;DHT22;47256;18.904;-99.054;2023-11-19T00:32:44;24.60;99.90
61386;DHT22;47256;18.904;-99.054;2023-11-19T00:35:12;24.50;99.90
61386;DHT22;47256;18.904;-99.054;2023-11-19T00:37:42;24.40;99.90
61386;DHT22;47256;18.904;-99.054;2023-11-19T00:40:16;24.30;99.90
61386;DHT22;47256;18.904;-99.054;2023-11-19T00:42:44;24.30;99.90
61386;DHT22;47256;18.904;-99.054;2023-11-19T00:45:14;24.20;99.90
61386;DHT22;47256;18.904;-99.054;2023-11-19T00:47:41;24.20;99.90
61386;DHT22;47256;18.904;-99.054;2023-11-19T00:50:10;24.20;99.90
61386;DHT22;47256;18.904;-99.054;2023-11-19T00:52:38;24.20;99.90
61386;DHT22;47256;18.904;-99.054;2023-11-19T00:55:06;24.10;99.90
61386;DHT22;47256;18.904;-99.054;2023-11-19T00:57:35;24.10;99.90
61386;DHT22;47256;18.904;-99.054;2023-11-19T01:00:03;24.00;99.90
61386;DHT22;47256;18.904;-99.054;2023-11-19T01:02:49;24.00;99.90
61386;DHT22;47256;18.904;-99.054;2023-11-19T01:05:16;24.00;99.90
61386;DHT22;47256;18.904;-99.054;2023-11-19T01:07:48;24.00;99.90
61386;DHT22;47256;18.904;-99.054;2023-11-19T01:10:15;23.90;99.90
61386;DHT22;47256;18.904;-99.054;2023-11-19T01:12:43;23.90;99.90
61386;DHT22;47256;18.904;-99.054;2023-11-19T01:15:10;23.80;99.90
61386;DHT22;47256;18.904;-99.054;2023-11-19T01:17:39;23.80;99.90
61386;DHT22;47256;18.904;-99.054;2023-11-19T01:20:07;23.80;99.90
61386;DHT22;47256;18.904;-99.054;2023-11-19T01:22:35;23.80;99.90
61386;DHT22;47256;18.904;-99.054;2023-11-19T01:25:03;23.80;99.90
61386;DHT22;47256;18.904;-99.054;2023-11-19T01:27:37;23.80;99.90
61386;DHT22;47256;18.904;-99.054;2023-11-19T01:30:04;23.80;99.90
61386;DHT22;47256;18.904;-99.054;2023-11-19T01:32:32;23.70;99.90
61386;DHT22;47256;18.904;-99.054;2023-11-19T01:34:59;23.70;99.90
61386;DHT22;47256;18.904;-99.054;2023-11-19T01:37:27;23.70;99.90
61386;DHT22;47256;18.904;-99.054;2023-11-19T01:39:54;23.60;99.90
61386;DHT22;47256;18.904;-99.054;2023-11-19T01:42:23;23.50;99.90
61386;DHT22;47256;18.904;-99.054;2023-11-19T01:44:58;23.50;99.90
61386;DHT22;47256;18.904;-99.054;2023-11-19T01:47:26;23.50;99.90
61386;DHT22;47256;18.904;-99.054;2023-11-19T01:49:55;23.50;99.90
61386;DHT22;47256;18.904;-99.054;2023-11-19T01:52:24;23.40;99.90
61386;DHT22;47256;18.904;-99.054;2023-11-19T01:54:54;23.40;99.90
61386;DHT22;47256;18.904;-99.054;2023-11-19T01:57:23;23.30;99.90
61386;DHT22;47256;18.904;-99.054;2023-11-19T01:59:52;23.20;99.90
61386;DHT22;47256;18.904;-99.054;2023-11-19T02:02:21;23.10;99.90
61386;DHT22;47256;18.904;-99.054;2023-11-19T02:04:50;23.00;99.90
61386;DHT22;47256;18.904;-99.054;2023-11-19T02:07:18;23.00;99.90
61386;DHT22;47256;18.904;-99.054;2023-11-19T02:09:46;22.90;99.90
61386;DHT22;47256;18.904;-99.054;2023-11-19T02:12:13;22.80;99.90
61386;DHT22;47256;18.904;-99.054;2023-11-19T02:14:40;22.80;99.90
61386;DHT22;47256;18.904;-99.054;2023-11-19T02:17:28;22.90;99.90
61386;DHT22;47256;18.904;-99.054;2023-11-19T02:19:58;22.90;99.90
61386;DHT22;47256;18.904;-99.054;2023-11-19T02:22:27;22.90;99.90
61386;DHT22;47256;18.904;-99.054;2023-11-19T02:25:00;22.90;99.90
61386;DHT22;47256;18.904;-99.054;2023-11-19T02:30:31;22.80;99.90
61386;DHT22;47256;18.904;-99.054;2023-11-19T02:32:59;22.60;99.90
61386;DHT22;47256;18.904;-99.054;2023-11-19T02:35:32;22.60;99.90
61386;DHT22;47256;18.904;-99.054;2023-11-19T02:38:01;22.60;99.90
61386;DHT22;47256;18.904;-99.054;2023-11-19T02:40:30;22.60;99.90
61386;DHT22;47256;18.904;-99.054;2023-11-19T02:42:58;22.60;99.90
61386;DHT22;47256;18.904;-99.054;2023-11-19T02:45:26;22.60;99.90
61386;DHT22;47256;18.904;-99.054;2023-11-19T02:47:57;22.60;99.90
61386;DHT22;47256;18.904;-99.054;2023-11-19T02:50:25;22.60;99.90
61386;DHT22;47256;18.904;-99.054;2023-11-19T02:52:54;22.50;99.90
61386;DHT22;47256;18.904;-99.054;2023-11-19T02:55:23;22.40;99.90
61386;DHT22;47256;18.904;-99.054;2023-11-19T02:57:52;22.40;99.90
61386;DHT22;47256;18.904;-99.054;2023-11-19T03:00:23;22.40;99.90
61386;DHT22;47256;18.904;-99.054;2023-11-19T03:02:52;22.30;99.90
61386;DHT22;47256;18.904;-99.054;2023-11-19T03:05:27;22.30;99.90
61386;DHT22;47256;18.904;-99.054;2023-11-19T03:07:57;22.30;99.90
61386;DHT22;47256;18.904;-99.054;2023-11-19T03:10:25;22.30;99.90
61386;DHT22;47256;18.904;-99.054;2023-11-19T03:12:52;22.30;99.90
61386;DHT22;47256;18.904;-99.054;2023-11-19T03:15:21;22.20;99.90
61386;DHT22;47256;18.904;-99.054;2023-11-19T03:17:49;22.10;99.90
61386;DHT22;47256;18.904;-99.054;2023-11-19T03:20:16;22.10;99.90
61386;DHT22;47256;18.904;-99.054;2023-11-19T03:22:44;22.10;99.90
61386;DHT22;47256;18.904;-99.054;2023-11-19T03:25:12;22.10;99.90
61386;DHT22;47256;18.904;-99.054;2023-11-19T03:27:40;22.00;99.90
61386;DHT22;47256;18.904;-99.054;2023-11-19T03:30:09;22.00;99.90
61386;DHT22;47256;18.904;-99.054;2023-11-19T03:32:37;22.10;99.90
61386;DHT22;47256;18.904;-99.054;2023-11-19T03:35:06;22.10;99.90
61386;DHT22;47256;18.904;-99.054;2023-11-19T03:37:36;22.10;99.90
61386;DHT22;47256;18.904;-99.054;2023-11-19T03:40:03;22.10;99.90
61386;DHT22;47256;18.904;-99.054;2023-11-19T03:42:32;22.00;99.90
61386;DHT22;47256;18.904;-99.054;2023-11-19T03:44:59;21.90;99.90
61386;DHT22;47256;18.904;-99.054;2023-11-19T03:47:28;21.90;99.90
61386;DHT22;47256;18.904;-99.054;2023-11-19T03:49:55;21.90;99.90
61386;DHT22;47256;18.904;-99.054;2023-11-19T03:52:23;21.70;99.90
61386;DHT22;47256;18.904;-99.054;2023-11-19T03:54:50;21.60;99.90
61386;DHT22;47256;18.904;-99.054;2023-11-19T03:57:18;21.60;99.90
61386;DHT22;47256;18.904;-99.054;2023-11-19T03:59:45;21.40;99.90
61386;DHT22;47256;18.904;-99.054;2023-11-19T04:02:17;21.40;99.90
61386;DHT22;47256;18.904;-99.054;2023-11-19T04:04:44;21.40;99.90
61386;DHT22;47256;18.904;-99.054;2023-11-19T04:07:12;21.40;99.90
61386;DHT22;47256;18.904;-99.054;2023-11-19T04:09:39;21.40;99.90
61386;DHT22;47256;18.904;-99.054;2023-11-19T04:12:06;21.40;99.90
61386;DHT22;47256;18.904;-99.054;2023-11-19T04:14:36;21.50;99.90
61386;DHT22;47256;18.904;-99.054;2023-11-19T04:17:03;21.30;99.90
61386;DHT22;47256;18.904;-99.054;2023-11-19T04:19:30;21.30;99.90
61386;DHT22;47256;18.904;-99.054;2023-11-19T04:21:59;21.20;99.90
61386;DHT22;47256;18.904;-99.054;2023-11-19T04:24:27;21.30;99.90
61386;DHT22;47256;18.904;-99.054;2023-11-19T04:26:54;21.30;99.90
61386;DHT22;47256;18.904;-99.054;2023-11-19T04:29:21;21.40;99.90
61386;DHT22;47256;18.904;-99.054;2023-11-19T04:31:49;21.40;99.90
61386;DHT22;47256;18.904;-99.054;2023-11-19T04:34:16;21.30;99.90
61386;DHT22;47256;18.904;-99.054;2023-11-19T04:36:43;21.30;99.90
61386;DHT22;47256;18.904;-99.054;2023-11-19T04:39:10;21.40;99.90
61386;DHT22;47256;18.904;-99.054;2023-11-19T04:41:52;21.40;99.90
61386;DHT22;47256;18.904;-99.054;2023-11-19T04:44:21;21.40;99.90
61386;DHT22;47256;18.904;-99.054;2023-11-19T04:46:48;21.40;99.90
61386;DHT22;47256;18.904;-99.054;2023-11-19T04:49:15;21.30;99.90
61386;DHT22;47256;18.904;-99.054;2023-11-19T04:51:44;21.30;99.90
61386;DHT22;47256;18.904;-99.054;2023-11-19T04:54:13;21.30;99.90
61386;DHT22;47256;18.904;-99.054;2023-11-19T04:56:44;21.30;99.90
61386;DHT22;47256;18.904;-99.054;2023-11-19T04:59:14;21.20;99.90
61386;DHT22;47256;18.904;-99.054;2023-11-19T05:01:41;21.20;99.90
61386;DHT22;47256;18.904;-99.054;2023-11-19T05:04:10;21.20;99.90
61386;DHT22;47256;18.904;-99.054;2023-11-19T05:06:37;21.30;99.90
61386;DHT22;47256;18.904;-99.054;2023-11-19T05:09:04;21.20;99.90
61386;DHT22;47256;18.904;-99.054;2023-11-19T05:11:34;21.10;99.90
61386;DHT22;47256;18.904;-99.054;2023-11-19T05:14:04;21.00;99.90
61386;DHT22;47256;18.904;-99.054;2023-11-19T05:16:32;21.00;99.90
61386;DHT22;47256;18.904;-99.054;2023-11-19T05:18:59;21.10;99.90
61386;DHT22;47256;18.904;-99.054;2023-11-19T05:21:26;21.10;99.90
61386;DHT22;47256;18.904;-99.054;2023-11-19T05:23:53;21.00;99.90
61386;DHT22;47256;18.904;-99.054;2023-11-19T05:26:22;21.00;99.90
61386;DHT22;47256;18.904;-99.054;2023-11-19T05:28:50;21.00;99.90
61386;DHT22;47256;18.904;-99.054;2023-11-19T05:31:18;20.90;99.90
61386;DHT22;47256;18.904;-99.054;2023-11-19T05:33:47;20.90;99.90
61386;DHT22;47256;18.904;-99.054;2023-11-19T05:36:15;20.80;99.90
61386;DHT22;47256;18.904;-99.054;2023-11-19T05:38:42;20.70;99.90
61386;DHT22;47256;18.904;-99.054;2023-11-19T05:41:11;20.70;99.90
61386;DHT22;47256;18.904;-99.054;2023-11-19T05:43:40;20.60;99.90
61386;DHT22;47256;18.904;-99.054;2023-11-19T05:46:07;20.60;99.90
61386;DHT22;47256;18.904;-99.054;2023-11-19T05:48:35;20.50;99.90
61386;DHT22;47256;18.904;-99.054;2023-11-19T05:51:02;20.50;99.90
61386;DHT22;47256;18.904;-99.054;2023-11-19T05:53:30;20.50;99.90
61386;DHT22;47256;18.904;-99.054;2023-11-19T05:55:57;20.40;99.90
61386;DHT22;47256;18.904;-99.054;2023-11-19T05:58:26;20.50;99.90
61386;DHT22;47256;18.904;-99.054;2023-11-19T06:00:56;20.50;99.90
61386;DHT22;47256;18.904;-99.054;2023-11-19T06:03:25;20.50;99.90
61386;DHT22;47256;18.904;-99.054;2023-11-19T06:05:52;20.50;99.90
61386;DHT22;47256;18.904;-99.054;2023-11-19T06:08:23;20.50;99.90
61386;DHT22;47256;18.904;-99.054;2023-11-19T06:10:50;20.30;99.90
61386;DHT22;47256;18.904;-99.054;2023-11-19T06:13:18;20.20;99.90
61386;DHT22;47256;18.904;-99.054;2023-11-19T06:15:46;20.20;99.90
61386;DHT22;47256;18.904;-99.054;2023-11-19T06:18:13;20.30;99.90
61386;DHT22;47256;18.904;-99.054;2023-11-19T06:20:41;20.20;99.90
61386;DHT22;47256;18.904;-99.054;2023-11-19T06:23:08;20.20;99.90
61386;DHT22;47256;18.904;-99.054;2023-11-19T06:25:35;20.20;99.90
61386;DHT22;47256;18.904;-99.054;2023-11-19T06:28:03;20.10;99.90
61386;DHT22;47256;18.904;-99.054;2023-11-19T06:30:31;20.20;99.90
61386;DHT22;47256;18.904;-99.054;2023-11-19T06:32:59;20.20;99.90
61386;DHT22;47256;18.904;-99.054;2023-11-19T06:35:26;20.30;99.90
61386;DHT22;47256;18.904;-99.054;2023-11-19T06:37:57;20.30;99.90
61386;DHT22;47256;18.904;-99.054;2023-11-19T06:40:25;20.20;99.90
61386;DHT22;47256;18.904;-99.054;2023-11-19T06:42:53;20.20;99.90
61386;DHT22;47256;18.904;-99.054;2023-11-19T06:45:20;20.20;99.90
61386;DHT22;47256;18.904;-99.054;2023-11-19T06:47:48;20.20;99.90
61386;DHT22;47256;18.904;-99.054;2023-11-19T06:50:16;20.10;99.90
61386;DHT22;47256;18.904;-99.054;2023-11-19T06:52:43;20.10;99.90
61386;DHT22;47256;18.904;-99.054;2023-11-19T06:55:11;20.10;99.90
61386;DHT22;47256;18.904;-99.054;2023-11-19T06:57:39;20.10;99.90
61386;DHT22;47256;18.904;-99.054;2023-11-19T07:00:07;19.90;99.90
61386;DHT22;47256;18.904;-99.054;2023-11-19T07:02:36;20.00;99.90
61386;DHT22;47256;18.904;-99.054;2023-11-19T07:05:03;20.00;99.90
61386;DHT22;47256;18.904;-99.054;2023-11-19T07:07:32;20.00;99.90
61386;DHT22;47256;18.904;-99.054;2023-11-19T07:09:59;20.10;99.90
61386;DHT22;47256;18.904;-99.054;2023-11-19T07:12:27;20.00;99.90
61386;DHT22;47256;18.904;-99.054;2023-11-19T07:15:00;19.90;99.90
61386;DHT22;47256;18.904;-99.054;2023-11-19T07:17:30;19.90;99.90
61386;DHT22;47256;18.904;-99.054;2023-11-19T07:19:57;19.90;99.90
61386;DHT22;47256;18.904;-99.054;2023-11-19T07:22:27;19.90;99.90
61386;DHT22;47256;18.904;-99.054;2023-11-19T07:24:56;19.90;99.90
61386;DHT22;47256;18.904;-99.054;2023-11-19T07:27:23;19.90;99.90
61386;DHT22;47256;18.904;-99.054;2023-11-19T07:29:51;19.90;99.90
61386;DHT22;47256;18.904;-99.054;2023-11-19T07:32:18;19.90;99.90
61386;DHT22;47256;18.904;-99.054;2023-11-19T07:34:45;19.90;99.90
61386;DHT22;47256;18.904;-99.054;2023-11-19T07:37:12;19.90;99.90
61386;DHT22;47256;18.904;-99.054;2023-11-19T07:39:40;19.90;99.90
61386;DHT22;47256;18.904;-99.054;2023-11-19T07:42:07;19.90;99.90
61386;DHT22;47256;18.904;-99.054;2023-11-19T07:44:36;19.90;99.90
61386;DHT22;47256;18.904;-99.054;2023-11-19T07:47:03;19.90;99.90
61386;DHT22;47256;18.904;-99.054;2023-11-19T07:49:32;19.90;99.90
61386;DHT22;47256;18.904;-99.054;2023-11-19T07:52:00;19.80;99.90
61386;DHT22;47256;18.904;-99.054;2023-11-19T07:54:27;19.70;99.90
61386;DHT22;47256;18.904;-99.054;2023-11-19T07:56:54;19.70;99.90
61386;DHT22;47256;18.904;-99.054;2023-11-19T07:59:23;19.70;99.90
61386;DHT22;47256;18.904;-99.054;2023-11-19T08:01:50;19.70;99.90
61386;DHT22;47256;18.904;-99.054;2023-11-19T08:04:18;19.60;99.90
61386;DHT22;47256;18.904;-99.054;2023-11-19T08:06:45;19.60;99.90
61386;DHT22;47256;18.904;-99.054;2023-11-19T08:09:13;19.60;99.90
61386;DHT22;47256;18.904;-99.054;2023-11-19T08:11:41;19.60;99.90
61386;DHT22;47256;18.904;-99.054;2023-11-19T08:14:08;19.60;99.90
61386;DHT22;47256;18.904;-99.054;2023-11-19T08:16:36;19.60;99.90
61386;DHT22;47256;18.904;-99.054;2023-11-19T08:19:04;19.60;99.90
61386;DHT22;47256;18.904;-99.054;2023-11-19T08:21:31;19.70;99.90
61386;DHT22;47256;18.904;-99.054;2023-11-19T08:23:59;19.70;99.90
61386;DHT22;47256;18.904;-99.054;2023-11-19T08:26:28;19.70;99.90
61386;DHT22;47256;18.904;-99.054;2023-11-19T08:28:55;19.60;99.90
61386;DHT22;47256;18.904;-99.054;2023-11-19T08:31:25;19.60;99.90
61386;DHT22;47256;18.904;-99.054;2023-11-19T08:33:54;19.40;99.90
61386;DHT22;47256;18.904;-99.054;2023-11-19T08:36:21;19.50;99.90
61386;DHT22;47256;18.904;-99.054;2023-11-19T08:38:48;19.40;99.90
61386;DHT22;47256;18.904;-99.054;2023-11-19T08:41:16;19.30;99.90
61386;DHT22;47256;18.904;-99.054;2023-11-19T08:43:47;19.30;99.90
61386;DHT22;47256;18.904;-99.054;2023-11-19T08:46:14;19.20;99.90
61386;DHT22;47256;18.904;-99.054;2023-11-19T08:48:41;19.10;99.90
61386;DHT22;47256;18.904;-99.054;2023-11-19T08:51:08;19.00;99.90
61386;DHT22;47256;18.904;-99.054;2023-11-19T08:53:36;19.00;99.90
61386;DHT22;47256;18.904;-99.054;2023-11-19T08:56:03;18.90;99.90
61386;DHT22;47256;18.904;-99.054;2023-11-19T08:58:32;18.90;99.90
61386;DHT22;47256;18.904;-99.054;2023-11-19T09:00:59;18.80;99.90
61386;DHT22;47256;18.904;-99.054;2023-11-19T09:03:28;18.90;99.90
61386;DHT22;47256;18.904;-99.054;2023-11-19T09:05:57;18.90;99.90
61386;DHT22;47256;18.904;-99.054;2023-11-19T09:08:25;18.90;99.90
61386;DHT22;47256;18.904;-99.054;2023-11-19T09:10:52;18.90;99.90
61386;DHT22;47256;18.904;-99.054;2023-11-19T09:13:19;18.90;99.90
61386;DHT22;47256;18.904;-99.054;2023-11-19T09:15:47;18.80;99.90
61386;DHT22;47256;18.904;-99.054;2023-11-19T09:18:14;18.80;99.90
61386;DHT22;47256;18.904;-99.054;2023-11-19T09:20:41;18.80;99.90
61386;DHT22;47256;18.904;-99.054;2023-11-19T09:23:08;18.80;99.90
61386;DHT22;47256;18.904;-99.054;2023-11-19T09:25:35;18.80;99.90
61386;DHT22;47256;18.904;-99.054;2023-11-19T09:28:02;18.90;99.90
61386;DHT22;47256;18.904;-99.054;2023-11-19T09:30:30;18.90;99.90
61386;DHT22;47256;18.904;-99.054;2023-11-19T09:33:00;18.80;99.90
61386;DHT22;47256;18.904;-99.054;2023-11-19T09:35:28;18.70;99.90
61386;DHT22;47256;18.904;-99.054;2023-11-19T09:37:55;18.50;99.90
61386;DHT22;47256;18.904;-99.054;2023-11-19T09:40:23;18.60;99.90
61386;DHT22;47256;18.904;-99.054;2023-11-19T09:42:50;18.70;99.90
61386;DHT22;47256;18.904;-99.054;2023-11-19T09:45:21;18.80;99.90
61386;DHT22;47256;18.904;-99.054;2023-11-19T09:47:51;18.80;99.90
61386;DHT22;47256;18.904;-99.054;2023-11-19T09:50:19;18.90;99.90
61386;DHT22;47256;18.904;-99.054;2023-11-19T09:52:47;18.90;99.90
61386;DHT22;47256;18.904;-99.054;2023-11-19T09:55:15;18.90;99.90
61386;DHT22;47256;18.904;-99.054;2023-11-19T09:57:43;18.80;99.90
61386;DHT22;47256;18.904;-99.054;2023-11-19T10:00:13;18.80;99.90
61386;DHT22;47256;18.904;-99.054;2023-11-19T10:02:45;18.80;99.90
61386;DHT22;47256;18.904;-99.054;2023-11-19T10:05:15;18.80;99.90
61386;DHT22;47256;18.904;-99.054;2023-11-19T10:07:43;18.90;99.90
61386;DHT22;47256;18.904;-99.054;2023-11-19T10:10:12;18.90;99.90
61386;DHT22;47256;18.904;-99.054;2023-11-19T10:12:50;18.80;99.90
61386;DHT22;47256;18.904;-99.054;2023-11-19T10:15:21;18.80;99.90
61386;DHT22;47256;18.904;-99.054;2023-11-19T10:17:49;18.70;99.90
61386;DHT22;47256;18.904;-99.054;2023-11-19T10:20:16;18.80;99.90
61386;DHT22;47256;18.904;-99.054;2023-11-19T10:22:44;18.70;99.90
61386;DHT22;47256;18.904;-99.054;2023-11-19T10:25:26;18.70;99.90
61386;DHT22;47256;18.904;-99.054;2023-11-19T10:27:55;18.70;99.90
61386;DHT22;47256;18.904;-99.054;2023-11-19T10:30:24;18.70;99.90
61386;DHT22;47256;18.904;-99.054;2023-11-19T10:33:09;18.80;99.90
61386;DHT22;47256;18.904;-99.054;2023-11-19T10:35:53;18.70;99.90
61386;DHT22;47256;18.904;-99.054;2023-11-19T10:38:21;18.70;99.90
61386;DHT22;47256;18.904;-99.054;2023-11-19T10:40:50;18.60;99.90
61386;DHT22;47256;18.904;-99.054;2023-11-19T10:43:22;18.60;99.90
61386;DHT22;47256;18.904;-99.054;2023-11-19T10:45:50;18.60;99.90
61386;DHT22;47256;18.904;-99.054;2023-11-19T10:48:18;18.60;99.90
61386;DHT22;47256;18.904;-99.054;2023-11-19T10:50:48;18.50;99.90
61386;DHT22;47256;18.904;-99.054;2023-11-19T10:53:18;18.40;99.90
61386;DHT22;47256;18.904;-99.054;2023-11-19T10:55:47;18.40;99.90
61386;DHT22;47256;18.904;-99.054;2023-11-19T10:58:16;18.30;99.90
61386;DHT22;47256;18.904;-99.054;2023-11-19T11:00:56;18.30;99.90
61386;DHT22;47256;18.904;-99.054;2023-11-19T11:03:26;18.40;99.90
61386;DHT22;47256;18.904;-99.054;2023-11-19T11:05:56;18.40;99.90
61386;DHT22;47256;18.904;-99.054;2023-11-19T11:08:24;18.40;99.90
61386;DHT22;47256;18.904;-99.054;2023-11-19T11:10:53;18.40;99.90
61386;DHT22;47256;18.904;-99.054;2023-11-19T11:13:23;18.20;99.90
61386;DHT22;47256;18.904;-99.054;2023-11-19T11:15:51;18.00;99.90
61386;DHT22;47256;18.904;-99.054;2023-11-19T11:18:21;18.00;99.90
61386;DHT22;47256;18.904;-99.054;2023-11-19T11:20:59;18.00;99.90
61386;DHT22;47256;18.904;-99.054;2023-11-19T11:29:16;18.20;99.90
61386;DHT22;47256;18.904;-99.054;2023-11-19T11:37:21;18.30;99.90
61386;DHT22;47256;18.904;-99.054;2023-11-19T11:39:50;18.30;99.90
61386;DHT22;47256;18.904;-99.054;2023-11-19T11:50:20;18.30;99.90
61386;DHT22;47256;18.904;-99.054;2023-11-19T11:58:03;18.30;99.90
61386;DHT22;47256;18.904;-99.054;2023-11-19T12:00:38;18.30;99.90
61386;DHT22;47256;18.904;-99.054;2023-11-19T12:03:12;18.30;99.90
61386;DHT22;47256;18.904;-99.054;2023-11-19T12:05:44;18.30;99.90
61386;DHT22;47256;18.904;-99.054;2023-11-19T12:08:13;18.30;99.90
61386;DHT22;47256;18.904;-99.054;2023-11-19T12:10:50;18.30;99.90
61386;DHT22;47256;18.904;-99.054;2023-11-19T12:13:21;18.20;99.90
61386;DHT22;47256;18.904;-99.054;2023-11-19T12:18:30;18.20;99.90
61386;DHT22;47256;18.904;-99.054;2023-11-19T12:21:00;18.10;99.90
61386;DHT22;47256;18.904;-99.054;2023-11-19T12:23:32;18.10;99.90
61386;DHT22;47256;18.904;-99.054;2023-11-19T12:25:59;18.00;99.90
61386;DHT22;47256;18.904;-99.054;2023-11-19T12:28:27;18.00;99.90
61386;DHT22;47256;18.904;-99.054;2023-11-19T12:31:08;18.00;99.90
61386;DHT22;47256;18.904;-99.054;2023-11-19T12:33:38;18.00;99.90
61386;DHT22;47256;18.904;-99.054;2023-11-19T12:36:05;18.10;99.90
61386;DHT22;47256;18.904;-99.054;2023-11-19T12:38:33;18.00;99.90
61386;DHT22;47256;18.904;-99.054;2023-11-19T12:41:03;18.00;99.90
61386;DHT22;47256;18.904;-99.054;2023-11-19T12:43:31;18.00;99.90
61386;DHT22;47256;18.904;-99.054;2023-11-19T12:46:01;17.90;99.90
61386;DHT22;47256;18.904;-99.054;2023-11-19T12:48:28;17.90;99.90
61386;DHT22;47256;18.904;-99.054;2023-11-19T12:50:57;17.90;99.90
61386;DHT22;47256;18.904;-99.054;2023-11-19T12:53:26;17.90;99.90
61386;DHT22;47256;18.904;-99.054;2023-11-19T12:55:55;17.90;99.90
61386;DHT22;47256;18.904;-99.054;2023-11-19T12:58:34;17.80;99.90
61386;DHT22;47256;18.904;-99.054;2023-11-19T13:01:05;17.90;99.90
61386;DHT22;47256;18.904;-99.054;2023-11-19T13:03:36;17.80;99.90
61386;DHT22;47256;18.904;-99.054;2023-11-19T13:06:09;17.90;99.90
61386;DHT22;47256;18.904;-99.054;2023-11-19T13:08:44;18.00;99.90
61386;DHT22;47256;18.904;-99.054;2023-11-19T13:11:12;17.90;99.90
61386;DHT22;47256;18.904;-99.054;2023-11-19T13:14:00;17.90;99.90
61386;DHT22;47256;18.904;-99.054;2023-11-19T13:16:30;17.90;99.90
61386;DHT22;47256;18.904;-99.054;2023-11-19T13:18:58;17.80;99.90
61386;DHT22;47256;18.904;-99.054;2023-11-19T13:21:26;17.80;99.90
61386;DHT22;47256;18.904;-99.054;2023-11-19T13:23:53;17.80;99.90
61386;DHT22;47256;18.904;-99.054;2023-11-19T13:26:21;17.90;99.90
61386;DHT22;47256;18.904;-99.054;2023-11-19T13:28:48;17.90;99.90
61386;DHT22;47256;18.904;-99.054;2023-11-19T13:31:15;17.90;99.90
61386;DHT22;47256;18.904;-99.054;2023-11-19T13:33:42;17.90;99.90
61386;DHT22;47256;18.904;-99.054;2023-11-19T13:36:11;18.00;99.90
61386;DHT22;47256;18.904;-99.054;2023-11-19T13:38:38;18.10;99.90
61386;DHT22;47256;18.904;-99.054;2023-11-19T13:41:09;18.20;99.90
61386;DHT22;47256;18.904;-99.054;2023-11-19T13:43:37;18.30;99.90
61386;DHT22;47256;18.904;-99.054;2023-11-19T13:46:07;18.30;99.90
61386;DHT22;47256;18.904;-99.054;2023-11-19T13:48:36;18.40;99.90
61386;DHT22;47256;18.904;-99.054;2023-11-19T13:51:03;18.50;99.90
61386;DHT22;47256;18.904;-99.054;2023-11-19T13:53:31;18.60;99.90
61386;DHT22;47256;18.904;-99.054;2023-11-19T13:55:59;18.70;99.90
61386;DHT22;47256;18.904;-99.054;2023-11-19T13:58:27;18.70;99.90
61386;DHT22;47256;18.904;-99.054;2023-11-19T14:00:55;18.70;99.90
61386;DHT22;47256;18.904;-99.054;2023-11-19T14:03:23;18.80;99.90
61386;DHT22;47256;18.904;-99.054;2023-11-19T14:05:50;18.80;99.90
61386;DHT22;47256;18.904;-99.054;2023-11-19T14:08:18;18.90;99.90
61386;DHT22;47256;18.904;-99.054;2023-11-19T14:10:46;19.00;99.90
61386;DHT22;47256;18.904;-99.054;2023-11-19T14:13:13;19.10;99.90
61386;DHT22;47256;18.904;-99.054;2023-11-19T14:15:42;19.10;99.90
61386;DHT22;47256;18.904;-99.054;2023-11-19T14:18:09;19.20;99.90
61386;DHT22;47256;18.904;-99.054;2023-11-19T14:20:36;19.30;99.90
61386;DHT22;47256;18.904;-99.054;2023-11-19T14:23:05;19.40;99.90
61386;DHT22;47256;18.904;-99.054;2023-11-19T14:25:33;19.40;99.90
61386;DHT22;47256;18.904;-99.054;2023-11-19T14:28:00;19.50;99.90
61386;DHT22;47256;18.904;-99.054;2023-11-19T14:30:27;19.50;99.90
61386;DHT22;47256;18.904;-99.054;2023-11-19T14:32:55;19.50;99.90
61386;DHT22;47256;18.904;-99.054;2023-11-19T14:35:23;19.60;99.90
61386;DHT22;47256;18.904;-99.054;2023-11-19T14:37:51;19.70;99.90
61386;DHT22;47256;18.904;-99.054;2023-11-19T14:40:18;19.80;99.90
61386;DHT22;47256;18.904;-99.054;2023-11-19T14:42:46;19.80;99.90
61386;DHT22;47256;18.904;-99.054;2023-11-19T14:45:14;19.80;99.90
61386;DHT22;47256;18.904;-99.054;2023-11-19T14:47:42;20.00;99.90
61386;DHT22;47256;18.904;-99.054;2023-11-19T14:50:10;20.10;99.90
61386;DHT22;47256;18.904;-99.054;2023-11-19T14:52:37;20.30;99.90
61386;DHT22;47256;18.904;-99.054;2023-11-19T14:55:05;20.30;99.90
61386;DHT22;47256;18.904;-99.054;2023-11-19T14:57:34;20.40;99.90
61386;DHT22;47256;18.904;-99.054;2023-11-19T15:00:03;20.40;99.90
61386;DHT22;47256;18.904;-99.054;2023-11-19T15:02:43;20.60;99.90
61386;DHT22;47256;18.904;-99.054;2023-11-19T15:05:10;20.80;99.90
61386;DHT22;47256;18.904;-99.054;2023-11-19T15:07:38;20.90;99.90
61386;DHT22;47256;18.904;-99.054;2023-11-19T15:10:07;21.00;99.90
61386;DHT22;47256;18.904;-99.054;2023-11-19T15:12:39;21.10;99.90
61386;DHT22;47256;18.904;-99.054;2023-11-19T15:15:08;21.10;99.90
61386;DHT22;47256;18.904;-99.054;2023-11-19T15:17:36;21.20;99.90
61386;DHT22;47256;18.904;-99.054;2023-11-19T15:20:04;21.30;99.90
61386;DHT22;47256;18.904;-99.054;2023-11-19T15:22:35;21.40;99.90
61386;DHT22;47256;18.904;-99.054;2023-11-19T15:25:02;21.60;99.90
61386;DHT22;47256;18.904;-99.054;2023-11-19T15:27:30;21.80;99.90
61386;DHT22;47256;18.904;-99.054;2023-11-19T15:29:57;22.10;99.90
61386;DHT22;47256;18.904;-99.054;2023-11-19T15:32:25;22.20;99.90
61386;DHT22;47256;18.904;-99.054;2023-11-19T15:34:52;22.40;99.90
61386;DHT22;47256;18.904;-99.054;2023-11-19T15:37:19;22.70;99.90
61386;DHT22;47256;18.904;-99.054;2023-11-19T15:39:46;22.80;99.90
61386;DHT22;47256;18.904;-99.054;2023-11-19T15:42:15;23.10;99.90